createdAt,value
2022-08-19T08:38:15.289Z,9.25
2022-08-19T08:40:49.635Z,8.75
2022-08-19T08:43:26.548Z,10.13
2022-08-19T08:46:03.595Z,9.55
2022-08-19T08:48:39.647Z,8.70
2022-08-19T08:51:12.210Z,8.70
2022-08-19T08:53:44.718Z,10.10
2022-08-19T08:56:14.253Z,9.43
2022-08-19T08:58:54.753Z,9.85
2022-08-19T09:01:23.270Z,9.68
2022-08-19T09:03:51.349Z,8.98
2022-08-19T09:06:27.892Z,8.77
2022-08-19T09:09:12.109Z,8.25
2022-08-19T09:11:49.632Z,7.82
2022-08-19T09:14:49.824Z,7.45
2022-08-19T09:17:19.678Z,7.18
2022-08-19T09:19:53.940Z,8.02
2022-08-19T09:22:26.042Z,7.28
2022-08-19T09:24:56.405Z,8.15
2022-08-19T09:27:42.130Z,8.05
2022-08-19T09:30:14.819Z,6.53
2022-08-19T09:32:44.193Z,7.03
2022-08-19T09:35:12.323Z,7.03
2022-08-19T09:37:40.371Z,7.18
2022-08-19T09:40:12.062Z,6.25
2022-08-19T09:42:50.395Z,6.65
2022-08-19T09:45:23.557Z,6.78
2022-08-19T09:47:54.126Z,7.00
2022-08-19T09:50:23.827Z,6.20
2022-08-19T09:52:55.486Z,6.05
2022-08-19T09:55:31.501Z,5.60
2022-08-19T09:58:01.444Z,5.93
2022-08-19T10:00:28.971Z,6.40
2022-08-19T10:02:56.586Z,6.22
2022-08-19T10:05:42.299Z,6.20
2022-08-19T10:08:13.687Z,5.85
2022-08-19T10:10:46.243Z,6.38
2022-08-19T10:13:16.879Z,6.80
2022-08-19T10:15:47.639Z,7.25
2022-08-19T10:18:18.741Z,6.72
2022-08-19T10:20:51.584Z,6.90
2022-08-19T10:23:21.196Z,6.47
2022-08-19T10:25:50.873Z,6.35
2022-08-19T10:28:19.401Z,6.85
2022-08-19T10:30:47.653Z,6.45
2022-08-19T10:33:16.119Z,6.82
2022-08-19T10:36:05.504Z,6.88
2022-08-19T10:41:08.670Z,6.28
2022-08-19T10:43:38.111Z,6.20
2022-08-19T10:48:41.901Z,7.20
2022-08-19T10:51:27.250Z,7.20
2022-08-19T10:53:56.330Z,6.78
2022-08-19T10:56:42.602Z,7.63
2022-08-19T10:59:10.706Z,6.90
2022-08-19T11:01:38.275Z,7.22
2022-08-19T11:04:09.379Z,6.80
2022-08-19T11:06:40.400Z,6.60
2022-08-19T11:09:08.374Z,7.00
2022-08-19T11:11:40.484Z,5.13
2022-08-19T11:14:09.007Z,6.60
2022-08-19T11:16:37.308Z,6.43
2022-08-19T11:19:04.811Z,5.35
2022-08-19T11:21:34.902Z,5.97
2022-08-19T11:24:04.571Z,5.40
2022-08-19T11:26:32.734Z,5.90
2022-08-19T11:29:02.807Z,5.43
2022-08-19T11:31:32.619Z,5.32
2022-08-19T11:34:02.487Z,5.68
2022-08-19T11:36:30.771Z,4.57
2022-08-19T11:38:58.259Z,5.03
2022-08-19T11:41:26.677Z,5.85
2022-08-19T11:43:56.111Z,6.00
2022-08-19T11:46:26.866Z,6.47
2022-08-19T11:48:56.032Z,6.30
2022-08-19T11:51:25.809Z,6.22
2022-08-19T11:53:54.214Z,6.88
2022-08-19T11:56:22.758Z,6.63
2022-08-19T11:58:50.641Z,6.78
2022-08-19T12:01:20.756Z,7.30
2022-08-19T12:03:51.556Z,7.93
2022-08-19T12:06:29.474Z,7.35
2022-08-19T12:08:58.260Z,6.55
2022-08-19T12:11:26.331Z,6.97
2022-08-19T12:13:55.936Z,7.07
2022-08-19T12:16:28.916Z,6.70
2022-08-19T12:18:58.943Z,6.85
2022-08-19T12:21:29.458Z,6.30
2022-08-19T12:23:59.084Z,6.20
2022-08-19T12:26:28.481Z,6.38
2022-08-19T12:28:56.299Z,6.07
2022-08-19T12:31:23.820Z,6.57
2022-08-19T12:33:53.328Z,6.95
2022-08-19T12:36:23.967Z,7.82
2022-08-19T12:38:51.904Z,7.75
2022-08-19T12:41:23.317Z,6.75
2022-08-19T12:43:52.017Z,7.18
2022-08-19T12:46:22.304Z,7.15
2022-08-19T12:48:55.196Z,6.93
2022-08-19T12:51:26.249Z,7.88
2022-08-19T12:53:53.717Z,8.30
2022-08-19T12:56:23.187Z,7.93
2022-08-19T12:58:53.084Z,6.88
2022-08-19T13:01:22.941Z,6.22
2022-08-19T13:03:51.146Z,5.82
2022-08-19T13:06:20.265Z,5.38
2022-08-19T13:08:49.428Z,4.97
2022-08-19T13:11:19.175Z,5.47
2022-08-19T13:13:49.075Z,7.75
2022-08-19T13:16:17.114Z,5.78
2022-08-19T13:18:47.757Z,4.90
2022-08-19T13:21:15.854Z,5.18
2022-08-19T13:23:43.572Z,5.88
2022-08-19T13:26:13.661Z,5.40
2022-08-19T13:28:59.959Z,4.80
2022-08-19T13:31:47.487Z,4.15
2022-08-19T13:34:16.106Z,4.38
2022-08-19T13:36:43.632Z,4.10
2022-08-19T13:39:11.694Z,4.28
2022-08-19T13:41:48.793Z,4.45
2022-08-19T13:44:19.774Z,3.97
2022-08-19T13:46:48.029Z,4.35
2022-08-19T13:49:16.878Z,4.70
2022-08-19T13:51:45.503Z,5.25
2022-08-19T13:54:14.163Z,4.63
2022-08-19T13:56:44.902Z,4.90
2022-08-19T13:59:13.317Z,4.70
2022-08-19T14:01:41.958Z,4.10
2022-08-19T14:04:09.804Z,4.85
2022-08-19T14:06:37.433Z,4.30
2022-08-19T14:09:05.762Z,3.63
2022-08-19T14:11:33.308Z,3.47
2022-08-19T14:14:02.229Z,3.80
2022-08-19T14:16:31.331Z,4.03
2022-08-19T14:21:26.961Z,3.83
2022-08-19T14:23:55.718Z,2.93
2022-08-19T14:26:25.280Z,2.40
2022-08-19T14:28:53.186Z,2.65
2022-08-19T14:31:27.801Z,2.90
2022-08-19T14:33:57.852Z,3.40
2022-08-19T14:36:25.394Z,2.72
2022-08-19T14:38:53.039Z,2.75
2022-08-19T14:41:22.310Z,3.03
2022-08-19T14:43:52.393Z,3.10
2022-08-19T14:46:26.134Z,2.65
2022-08-19T14:48:56.840Z,2.60
2022-08-19T14:51:27.413Z,2.58
2022-08-19T14:53:55.201Z,2.97
2022-08-19T14:56:25.747Z,2.72
2022-08-19T14:58:53.967Z,2.80
2022-08-19T15:01:24.697Z,2.87
2022-08-19T15:03:53.940Z,2.60
2022-08-19T15:06:23.165Z,2.60
2022-08-19T15:08:52.563Z,2.42
2022-08-19T15:11:23.628Z,2.17
2022-08-19T15:13:51.995Z,2.47
2022-08-19T15:16:20.551Z,2.80
2022-08-19T15:18:52.172Z,2.53
2022-08-19T15:21:26.942Z,2.58
2022-08-19T15:23:56.019Z,2.75
2022-08-19T15:26:23.583Z,2.55
2022-08-19T15:28:51.110Z,2.40
2022-08-19T15:31:28.001Z,2.22
2022-08-19T15:33:59.014Z,2.47
2022-08-19T15:36:27.533Z,2.33
2022-08-19T15:38:55.544Z,2.67
2022-08-19T15:41:24.859Z,2.35
2022-08-19T15:43:55.411Z,2.70
2022-08-19T15:46:25.714Z,2.80
2022-08-19T15:48:55.999Z,2.60
2022-08-19T15:51:31.298Z,2.80
2022-08-19T15:54:01.144Z,2.80
2022-08-19T15:56:58.266Z,2.67
2022-08-19T15:59:47.409Z,2.80
2022-08-19T16:02:33.709Z,2.80
2022-08-19T16:05:18.855Z,2.33
2022-08-19T16:07:48.417Z,2.80
2022-08-19T16:10:26.278Z,2.53
2022-08-19T16:12:56.086Z,2.90
2022-08-19T16:15:24.023Z,2.70
2022-08-19T16:17:56.777Z,3.08
2022-08-19T16:20:26.200Z,3.20
2022-08-19T16:22:56.533Z,3.03
2022-08-19T16:25:29.032Z,2.95
2022-08-19T16:28:07.606Z,2.83
2022-08-19T16:30:36.285Z,2.70
2022-08-19T16:33:03.787Z,3.20
2022-08-19T16:35:31.360Z,3.28
2022-08-19T16:38:00.619Z,2.78
2022-08-19T16:40:28.147Z,3.88
2022-08-19T16:42:56.471Z,3.92
2022-08-19T16:45:24.159Z,2.90
2022-08-19T16:47:51.681Z,2.47
2022-08-19T16:50:25.378Z,3.80
2022-08-19T16:53:03.421Z,4.30
2022-08-19T16:55:30.919Z,3.85
2022-08-19T16:57:58.520Z,4.28
2022-08-19T17:00:26.008Z,3.40
2022-08-19T17:02:53.625Z,3.47
2022-08-19T17:05:21.456Z,3.30
2022-08-19T17:07:48.939Z,2.78
2022-08-19T17:10:17.750Z,2.58
2022-08-19T17:12:45.237Z,2.90
2022-08-19T17:15:12.979Z,3.05
2022-08-19T17:17:41.444Z,2.80
2022-08-19T17:20:09.727Z,2.92
2022-08-19T17:22:37.377Z,3.70
2022-08-19T17:25:05.869Z,2.95
2022-08-19T17:27:34.906Z,2.70
2022-08-19T17:30:03.195Z,2.80
2022-08-19T17:32:32.392Z,3.10
2022-08-19T17:37:28.106Z,2.72
2022-08-19T17:39:55.634Z,2.60
2022-08-19T17:42:23.237Z,2.80
2022-08-19T17:44:52.243Z,3.03
2022-08-19T17:47:20.994Z,2.67
2022-08-19T17:49:48.569Z,3.15
2022-08-19T17:52:16.231Z,3.10
2022-08-19T17:54:43.725Z,2.55
2022-08-19T17:57:11.250Z,3.00
2022-08-19T17:59:38.877Z,3.03
2022-08-19T18:02:10.060Z,2.90
2022-08-19T18:04:38.952Z,3.00
2022-08-19T18:07:06.480Z,3.05
2022-08-19T18:09:41.431Z,2.90
2022-08-19T18:12:12.204Z,2.90
2022-08-19T18:14:41.151Z,3.08
2022-08-19T18:17:12.379Z,3.15
2022-08-19T18:19:43.750Z,3.25
2022-08-19T18:22:14.080Z,2.85
2022-08-19T18:24:42.649Z,2.83
2022-08-19T18:27:13.487Z,3.00
2022-08-19T18:29:40.975Z,2.92
2022-08-19T18:32:13.145Z,3.22
2022-08-19T18:34:42.040Z,2.90
2022-08-19T18:37:09.664Z,3.00
2022-08-19T18:39:55.269Z,3.20
2022-08-19T18:42:40.398Z,3.50
2022-08-19T18:45:27.739Z,3.60
2022-08-19T18:48:26.925Z,3.88
2022-08-19T18:50:59.931Z,4.28
2022-08-19T18:53:29.335Z,4.28
2022-08-19T18:55:57.306Z,3.65
2022-08-19T18:58:31.963Z,3.88
2022-08-19T19:01:00.314Z,3.47
2022-08-19T19:03:29.240Z,3.25
2022-08-19T19:05:56.812Z,3.42
2022-08-19T19:08:27.105Z,3.80
2022-08-19T19:10:56.263Z,3.70
2022-08-19T19:13:23.964Z,3.60
2022-08-19T19:15:51.649Z,4.50
2022-08-19T19:18:19.190Z,3.92
2022-08-19T19:20:48.058Z,3.90
2022-08-19T19:23:15.577Z,3.70
2022-08-19T19:25:50.491Z,3.60
2022-08-19T19:28:25.422Z,3.35
2022-08-19T19:30:54.221Z,3.50
2022-08-19T19:33:21.889Z,3.83
2022-08-19T19:35:50.780Z,4.50
2022-08-19T19:38:18.587Z,3.90
2022-08-19T19:40:46.451Z,4.15
2022-08-19T19:43:17.085Z,4.10
2022-08-19T19:45:44.875Z,3.97
2022-08-19T19:48:13.464Z,4.18
2022-08-19T19:50:40.987Z,4.20
2022-08-19T19:53:09.921Z,5.95
2022-08-19T19:55:37.777Z,5.80
2022-08-19T19:58:06.857Z,3.88
2022-08-19T20:00:34.681Z,3.65
2022-08-19T20:03:02.361Z,3.90
2022-08-19T20:05:29.893Z,3.53
2022-08-19T20:08:14.967Z,3.83
2022-08-19T20:10:44.804Z,3.85
2022-08-19T20:13:15.401Z,3.45
2022-08-19T20:15:44.327Z,5.75
2022-08-19T20:18:14.356Z,5.65
2022-08-19T20:20:42.515Z,5.22
2022-08-19T20:23:10.138Z,5.00
2022-08-19T20:25:39.468Z,4.97
2022-08-19T20:33:07.555Z,4.85
2022-08-19T20:35:37.227Z,6.07
2022-08-19T20:38:08.626Z,5.55
2022-08-19T20:40:37.814Z,5.18
2022-08-19T20:43:10.630Z,5.45
2022-08-19T20:45:38.604Z,5.13
2022-08-19T20:48:09.009Z,5.68
2022-08-19T20:50:37.539Z,5.50
2022-08-19T20:53:11.367Z,5.37
2022-08-19T20:55:38.931Z,5.22
2022-08-19T20:58:06.477Z,5.72
2022-08-19T21:00:35.314Z,5.28
2022-08-19T21:03:02.848Z,5.60
2022-08-19T21:05:30.790Z,5.22
2022-08-19T21:07:58.589Z,5.00
2022-08-19T21:10:26.287Z,5.55
2022-08-19T21:12:55.401Z,5.32
2022-08-19T21:15:24.613Z,5.00
2022-08-19T21:17:53.443Z,4.90
2022-08-19T21:20:20.942Z,4.80
2022-08-19T21:22:48.487Z,5.13
2022-08-19T21:25:17.627Z,5.18
2022-08-19T21:27:45.122Z,4.95
2022-08-19T21:30:14.075Z,4.47
2022-08-19T21:32:41.560Z,4.30
2022-08-19T21:35:11.143Z,4.30
2022-08-19T21:37:38.798Z,4.68
2022-08-19T21:40:07.513Z,5.07
2022-08-19T21:42:35.830Z,4.78
2022-08-19T21:45:03.582Z,5.20
2022-08-19T21:47:31.099Z,4.88
2022-08-19T21:49:58.646Z,3.80
2022-08-19T21:52:28.095Z,4.07
2022-08-19T21:57:24.509Z,4.07
2022-08-19T21:59:52.103Z,4.45
2022-08-19T22:02:21.353Z,3.92
2022-08-19T22:04:49.846Z,4.13
2022-08-19T22:07:17.387Z,4.07
2022-08-19T22:09:47.924Z,4.30
2022-08-19T22:12:23.933Z,4.05
2022-08-19T22:14:51.839Z,4.43
2022-08-19T22:17:20.186Z,4.80
2022-08-19T22:19:48.025Z,3.97
2022-08-19T22:22:21.425Z,4.28
2022-08-19T22:24:50.221Z,3.85
2022-08-19T22:27:17.738Z,4.18
2022-08-19T22:29:45.339Z,4.38
2022-08-19T22:32:26.552Z,4.40
2022-08-19T22:34:58.636Z,4.35
2022-08-19T22:37:26.447Z,4.32
2022-08-19T22:39:55.645Z,4.28
2022-08-19T22:42:24.883Z,4.00
2022-08-19T22:44:59.837Z,4.53
2022-08-19T22:47:30.252Z,4.28
2022-08-19T22:50:00.709Z,4.60
2022-08-19T22:52:27.491Z,4.45
2022-08-19T22:55:00.161Z,3.97
2022-08-19T22:57:28.175Z,4.35
2022-08-19T23:00:01.004Z,4.35
2022-08-19T23:02:32.328Z,4.18
2022-08-19T23:05:02.273Z,4.50
2022-08-19T23:07:29.784Z,4.63
2022-08-19T23:09:58.594Z,3.92
2022-08-19T23:12:28.503Z,4.70
2022-08-19T23:14:56.010Z,4.47
2022-08-19T23:17:23.504Z,7.82
2022-08-19T23:19:51.597Z,4.10
2022-08-19T23:22:20.031Z,4.15
2022-08-19T23:24:55.998Z,4.35
2022-08-19T23:27:42.827Z,3.97
2022-08-19T23:30:26.737Z,4.13
2022-08-19T23:32:55.184Z,4.40
2022-08-19T23:35:23.141Z,3.55
2022-08-19T23:37:52.154Z,3.67
2022-08-19T23:40:21.615Z,4.82
2022-08-19T23:42:52.801Z,4.78
2022-08-19T23:45:23.625Z,5.00
2022-08-19T23:47:51.721Z,4.53
2022-08-19T23:52:51.789Z,4.22
2022-08-19T23:55:22.019Z,3.83
2022-08-19T23:57:51.039Z,3.88
